createdAt,value
2019-04-22T00:00:44.968Z,98840.76
2019-04-22T00:03:18.255Z,98840.66
2019-04-22T00:06:13.032Z,98832.70
2019-04-22T00:08:49.540Z,98831.84
2019-04-22T00:11:26.005Z,98832.44
2019-04-22T00:16:33.881Z,98835.64
2019-04-22T00:21:40.065Z,98822.99
2019-04-22T00:24:10.674Z,98822.11
2019-04-22T00:26:44.014Z,98824.02
2019-04-22T00:29:37.045Z,98823.20
2019-04-22T00:32:19.508Z,98818.03
2019-04-22T00:34:53.808Z,98820.31
2019-04-22T00:37:28.921Z,98817.39
2019-04-22T00:39:57.328Z,98815.20
2019-04-22T00:42:36.070Z,98822.31
2019-04-22T00:45:08.198Z,98815.40
2019-04-22T00:52:52.514Z,98813.89
2019-04-22T00:55:23.365Z,98813.05
2019-04-22T00:57:46.336Z,98822.31
2019-04-22T01:00:26.242Z,98818.90
2019-04-22T01:03:02.762Z,98816.99
2019-04-22T01:05:34.335Z,98815.66
2019-04-22T01:08:06.828Z,98812.52
2019-04-22T01:10:42.180Z,98810.21
2019-04-22T01:13:14.153Z,98808.50
2019-04-22T01:15:47.490Z,98795.84
2019-04-22T01:18:15.860Z,98804.28
2019-04-22T01:23:28.154Z,98797.89
2019-04-22T01:25:56.797Z,98793.89
2019-04-22T01:28:27.276Z,98797.28
2019-04-22T01:30:53.466Z,98792.66
2019-04-22T01:33:32.453Z,98785.54
2019-04-22T01:36:16.891Z,98792.83
2019-04-22T01:38:52.321Z,98786.16
2019-04-22T01:41:32.429Z,98793.76
2019-04-22T01:44:05.704Z,98785.81
2019-04-22T01:46:31.558Z,98787.61
2019-04-22T01:49:11.812Z,98781.70
2019-04-22T01:51:54.676Z,98781.81
2019-04-22T01:56:46.946Z,98776.63
2019-04-22T01:59:16.818Z,98777.46
2019-04-22T02:01:59.261Z,98781.94
2019-04-22T02:04:31.839Z,98771.81
2019-04-22T02:07:01.847Z,98772.89
2019-04-22T02:09:38.004Z,98767.08
2019-04-22T02:12:05.872Z,98765.41
2019-04-22T02:14:45.468Z,98768.67
2019-04-22T02:19:45.536Z,98765.17
2019-04-22T02:22:17.644Z,98770.46
2019-04-22T02:27:35.205Z,98763.82
2019-04-22T02:29:51.951Z,98758.04
2019-04-22T02:35:03.444Z,98753.93
2019-04-22T02:37:35.831Z,98757.56
2019-04-22T02:42:43.184Z,98751.74
2019-04-22T02:45:23.183Z,98744.02
2019-04-22T02:48:01.915Z,98746.05
2019-04-22T02:50:28.827Z,98735.06
2019-04-22T02:52:51.250Z,98732.89
2019-04-22T02:58:01.761Z,98727.58
2019-04-22T03:05:47.250Z,98725.89
2019-04-22T03:08:15.106Z,98728.53
2019-04-22T03:11:11.469Z,98720.84
2019-04-22T03:13:29.212Z,98720.34
2019-04-22T03:16:03.284Z,98718.75
2019-04-22T03:18:38.299Z,98715.49
2019-04-22T03:28:50.808Z,98709.31
2019-04-22T03:37:20.648Z,98704.45
2019-04-22T03:39:52.943Z,98702.12
2019-04-22T03:42:06.811Z,98702.80
2019-04-22T03:44:38.617Z,98697.87
2019-04-22T03:49:49.610Z,98694.26
2019-04-22T03:54:52.410Z,98691.13
2019-04-22T04:02:41.406Z,98675.35
2019-04-22T04:04:58.823Z,98675.84
2019-04-22T04:10:37.591Z,98675.82
2019-04-22T04:15:23.696Z,98676.13
2019-04-22T04:17:55.050Z,98670.33
2019-04-22T04:20:42.115Z,98666.23
2019-04-22T04:30:42.897Z,98655.77
2019-04-22T04:38:21.185Z,98657.01
2019-04-22T04:41:01.934Z,98650.98
2019-04-22T04:43:37.766Z,98654.45
2019-04-22T04:46:10.129Z,98656.28
2019-04-22T04:49:03.043Z,98648.69
2019-04-22T04:51:16.265Z,98650.56
2019-04-22T04:53:41.487Z,98647.43
2019-04-22T04:56:34.412Z,98652.70
2019-04-22T04:59:05.436Z,98652.34
2019-04-22T05:06:36.702Z,98662.26
2019-04-22T05:14:09.309Z,98660.63
2019-04-22T05:19:16.043Z,98659.61
2019-04-22T05:21:47.180Z,98658.77
2019-04-22T05:26:52.401Z,98654.69
2019-04-22T05:29:56.580Z,98655.05
2019-04-22T05:31:56.840Z,98652.16
2019-04-22T05:34:29.173Z,98647.20
2019-04-22T05:37:01.234Z,98644.29
2019-04-22T05:39:29.793Z,98649.09
2019-04-22T05:42:08.438Z,98647.54
2019-04-22T05:44:41.264Z,98649.52
2019-04-22T05:47:15.270Z,98646.63
2019-04-22T05:49:41.658Z,98641.41
2019-04-22T05:52:17.374Z,98642.73
2019-04-22T05:54:46.848Z,98638.56
2019-04-22T05:57:18.030Z,98639.41
2019-04-22T05:59:54.681Z,98636.37
2019-04-22T06:02:30.551Z,98638.77
2019-04-22T06:05:01.530Z,98631.27
2019-04-22T06:07:27.905Z,98639.19
2019-04-22T06:10:08.259Z,98636.11
2019-04-22T06:12:32.692Z,98630.75
2019-04-22T06:15:16.317Z,98639.37
2019-04-22T06:17:47.313Z,98633.97
2019-04-22T06:20:15.344Z,98634.34
2019-04-22T06:22:58.462Z,98636.23
2019-04-22T06:25:39.595Z,98630.95
2019-04-22T06:28:04.897Z,98628.61
2019-04-22T06:30:34.629Z,98630.39
2019-04-22T06:33:09.762Z,98627.20
2019-04-22T06:35:45.682Z,98624.62
2019-04-22T06:40:46.550Z,98627.61
2019-04-22T06:43:15.837Z,98629.11
2019-04-22T06:45:43.560Z,98627.99
2019-04-22T06:50:58.391Z,98618.16
2019-04-22T06:53:29.703Z,98624.03
2019-04-22T06:56:00.088Z,98624.88
2019-04-22T06:58:34.702Z,98623.39
2019-04-22T07:01:18.087Z,98617.80
2019-04-22T07:03:48.935Z,98617.58
2019-04-22T07:06:26.179Z,98613.54
2019-04-22T07:09:17.925Z,98605.52
2019-04-22T07:11:26.582Z,98612.72
2019-04-22T07:14:01.134Z,98602.88
2019-04-22T07:16:35.079Z,98599.45
2019-04-22T07:19:09.431Z,98592.04
2019-04-22T07:21:37.645Z,98595.32
2019-04-22T07:24:35.712Z,98593.30
2019-04-22T07:26:45.103Z,98592.72
2019-04-22T07:29:23.141Z,98595.33
2019-04-22T07:31:49.790Z,98594.98
2019-04-22T07:36:59.916Z,98591.27
2019-04-22T07:39:23.153Z,98587.36
2019-04-22T07:41:59.121Z,98585.28
2019-04-22T07:44:38.528Z,98580.99
2019-04-22T07:47:18.550Z,98580.45
2019-04-22T07:52:24.643Z,98571.37
2019-04-22T07:54:58.510Z,98569.56
2019-04-22T07:57:47.231Z,98564.88
2019-04-22T08:00:10.669Z,98561.62
2019-04-22T08:02:39.985Z,98563.13
2019-04-22T08:07:39.521Z,98556.99
2019-04-22T08:10:15.382Z,98549.48
2019-04-22T08:15:12.671Z,98551.50
2019-04-22T08:20:16.634Z,98555.67
2019-04-22T08:22:54.658Z,98553.34
2019-04-22T08:25:18.143Z,98556.19
2019-04-22T08:27:50.548Z,98560.31
2019-04-22T08:30:29.034Z,98552.86
2019-04-22T08:32:54.530Z,98550.46
2019-04-22T08:35:36.951Z,98550.80
2019-04-22T08:40:36.380Z,98543.88
2019-04-22T08:45:38.558Z,98541.33
2019-04-22T08:48:12.656Z,98538.44
2019-04-22T08:50:52.360Z,98539.55
2019-04-22T08:53:28.609Z,98531.09
2019-04-22T08:56:04.722Z,98533.45
2019-04-22T08:58:46.444Z,98522.51
2019-04-22T09:00:57.221Z,98523.16
2019-04-22T09:03:24.282Z,98524.77
2019-04-22T09:06:09.012Z,98516.17
2019-04-22T09:08:34.218Z,98515.63
2019-04-22T09:11:18.244Z,98512.84
2019-04-22T09:13:45.428Z,98513.55
2019-04-22T09:16:20.790Z,98511.94
2019-04-22T09:21:21.461Z,98502.25
2019-04-22T09:23:53.970Z,98499.75
2019-04-22T09:26:26.516Z,98493.81
2019-04-22T09:31:23.420Z,98489.89
2019-04-22T09:33:53.354Z,98480.67
2019-04-22T09:36:33.737Z,98476.90
2019-04-22T09:38:52.832Z,98472.81
2019-04-22T09:41:31.886Z,98477.96
2019-04-22T09:44:02.618Z,98463.99
2019-04-22T09:49:12.119Z,98457.83
2019-04-22T09:51:37.183Z,98453.95
2019-04-22T09:54:14.220Z,98452.92
2019-04-22T09:56:43.940Z,98450.82
2019-04-22T09:59:13.982Z,98434.34
2019-04-22T10:01:42.166Z,98434.34
2019-04-22T10:04:14.299Z,98432.25
2019-04-22T10:06:59.606Z,98432.23
2019-04-22T10:09:37.336Z,98429.28
2019-04-22T10:12:03.652Z,98418.52
2019-04-22T10:14:18.969Z,98418.00
2019-04-22T10:16:49.323Z,98416.30
2019-04-22T10:19:26.348Z,98400.28
2019-04-22T10:24:18.990Z,98403.78
2019-04-22T10:26:54.963Z,98395.77
2019-04-22T10:29:24.738Z,98389.97
2019-04-22T10:34:16.847Z,98387.23
2019-04-22T10:36:37.873Z,98383.39
2019-04-22T10:39:08.577Z,98375.89
2019-04-22T10:41:38.991Z,98375.05
2019-04-22T10:44:08.883Z,98368.09
2019-04-22T10:46:38.416Z,98367.69
2019-04-22T10:49:08.564Z,98368.47
2019-04-22T10:51:40.339Z,98356.63
2019-04-22T10:54:21.367Z,98361.16
2019-04-22T10:56:52.790Z,98360.88
2019-04-22T10:59:22.646Z,98354.23
2019-04-22T11:01:52.701Z,98345.10
2019-04-22T11:04:22.559Z,98342.55
2019-04-22T11:06:56.379Z,98336.62
2019-04-22T11:09:25.292Z,98334.44
2019-04-22T11:12:02.140Z,98328.52
2019-04-22T11:14:28.597Z,98327.24
2019-04-22T11:17:00.449Z,98323.82
2019-04-22T11:19:29.859Z,98312.05
2019-04-22T11:22:07.771Z,98314.20
2019-04-22T11:24:38.911Z,98307.16
2019-04-22T11:27:08.382Z,98307.67
2019-04-22T11:29:37.594Z,98307.42
2019-04-22T11:32:08.589Z,98300.17
2019-04-22T11:34:39.604Z,98302.17
2019-04-22T11:37:10.210Z,98298.12
2019-04-22T11:39:40.765Z,98298.23
2019-04-22T11:42:10.084Z,98289.86
2019-04-22T11:44:41.173Z,98290.89
2019-04-22T11:47:11.485Z,98284.58
2019-04-22T11:49:41.769Z,98275.73
2019-04-22T11:52:14.652Z,98274.86
2019-04-22T11:54:43.254Z,98263.39
2019-04-22T11:57:13.288Z,98266.66
2019-04-22T11:59:44.933Z,98273.95
2019-04-22T12:02:16.198Z,98271.75
2019-04-22T12:04:49.753Z,98258.81
2019-04-22T12:07:19.078Z,98256.95
2019-04-22T12:09:48.479Z,98250.36
2019-04-22T12:12:18.150Z,98244.73
2019-04-22T12:14:50.089Z,98241.98
2019-04-22T12:17:20.017Z,98242.34
2019-04-22T12:19:50.387Z,98241.41
2019-04-22T12:22:20.888Z,98234.94
2019-04-22T12:24:50.365Z,98230.73
2019-04-22T12:27:20.909Z,98223.50
2019-04-22T12:29:53.157Z,98219.27
2019-04-22T12:32:23.288Z,98213.73
2019-04-22T12:34:53.357Z,98212.45
2019-04-22T12:37:34.198Z,98200.83
2019-04-22T12:39:56.504Z,98209.45
2019-04-22T12:42:27.080Z,98201.98
2019-04-22T12:44:58.267Z,98195.84
2019-04-22T12:47:30.547Z,98191.53
2019-04-22T12:50:08.864Z,98190.70
2019-04-22T12:52:40.760Z,98188.53
2019-04-22T12:55:03.789Z,98182.25
2019-04-22T12:57:34.651Z,98183.28
2019-04-22T13:00:05.923Z,98182.58
2019-04-22T13:02:36.648Z,98169.42
2019-04-22T13:05:10.084Z,98166.13
2019-04-22T13:07:39.984Z,98156.21
2019-04-22T13:10:10.726Z,98158.58
2019-04-22T13:12:42.778Z,98162.43
2019-04-22T13:15:16.099Z,98151.96
2019-04-22T13:18:01.049Z,98151.45
2019-04-22T13:20:22.051Z,98139.88
2019-04-22T13:22:54.730Z,98140.98
2019-04-22T13:25:28.296Z,98137.88
2019-04-22T13:28:07.105Z,98126.44
2019-04-22T13:30:38.626Z,98127.80
2019-04-22T13:33:10.765Z,98125.08
2019-04-22T13:35:41.615Z,98115.98
2019-04-22T13:38:11.163Z,98118.60
2019-04-22T13:40:57.829Z,98102.45
2019-04-22T13:43:13.550Z,98100.98
2019-04-22T13:45:43.804Z,98095.97
2019-04-22T13:48:31.148Z,98094.69
2019-04-22T13:51:25.739Z,98087.68
2019-04-22T13:56:08.735Z,98085.25
2019-04-22T13:58:31.290Z,98076.28
2019-04-22T14:00:54.284Z,98077.64
2019-04-22T14:04:02.709Z,98069.95
2019-04-22T14:06:34.730Z,98047.59
2019-04-22T14:09:07.438Z,98068.45
2019-04-22T14:11:48.903Z,98057.61
2019-04-22T14:14:10.980Z,98057.77
2019-04-22T14:16:42.475Z,98052.28
2019-04-22T14:19:14.051Z,98051.29
2019-04-22T14:21:47.210Z,98046.77
2019-04-22T14:24:15.794Z,98044.00
2019-04-22T14:26:58.822Z,98040.64
2019-04-22T14:29:19.715Z,98042.15
2019-04-22T14:32:03.837Z,98041.63
2019-04-22T14:34:24.272Z,98036.34
2019-04-22T14:36:53.501Z,98038.82
2019-04-22T14:39:24.091Z,98037.99
2019-04-22T14:42:27.025Z,98036.37
2019-04-22T14:47:32.774Z,98021.08
2019-04-22T14:50:10.238Z,98019.55
2019-04-22T14:52:36.037Z,98021.33
2019-04-22T14:54:55.443Z,98007.73
2019-04-22T14:57:17.041Z,98010.30
2019-04-22T14:59:46.245Z,98011.73
2019-04-22T15:02:16.379Z,97999.97
2019-04-22T15:04:45.954Z,98000.42
2019-04-22T15:07:15.154Z,98003.04
2019-04-22T15:09:44.359Z,97999.56
2019-04-22T15:12:21.975Z,97994.78
2019-04-22T15:14:45.803Z,97993.59
2019-04-22T15:17:38.741Z,97990.34
2019-04-22T15:20:23.755Z,97995.59
2019-04-22T15:22:54.748Z,97981.58
2019-04-22T15:25:24.375Z,97981.56
2019-04-22T15:27:55.219Z,97981.87
2019-04-22T15:30:25.497Z,97977.04
2019-04-22T15:32:57.166Z,97980.91
2019-04-22T15:35:29.095Z,97984.70
2019-04-22T15:37:59.245Z,97979.03
2019-04-22T15:40:31.058Z,97976.45
2019-04-22T15:43:04.715Z,97975.80
2019-04-22T15:45:34.923Z,97970.38
2019-04-22T15:48:04.386Z,97969.09
2019-04-22T15:50:35.050Z,97965.00
2019-04-22T15:53:05.694Z,97964.05
2019-04-22T15:55:36.728Z,97964.39
2019-04-22T15:58:10.167Z,97963.63
2019-04-22T16:00:51.837Z,97963.41
2019-04-22T16:03:12.777Z,97965.59
2019-04-22T16:05:44.110Z,97961.56
2019-04-22T16:08:15.150Z,97952.39
2019-04-22T16:10:46.018Z,97955.86
2019-04-22T16:13:22.321Z,97956.61
2019-04-22T16:15:46.758Z,97956.14
2019-04-22T16:18:16.099Z,97959.99
2019-04-22T16:20:46.146Z,97955.82
2019-04-22T16:23:24.666Z,97962.13
2019-04-22T16:25:55.957Z,97956.50
2019-04-22T16:28:29.320Z,97951.33
2019-04-22T16:30:59.702Z,97957.14
2019-04-22T16:33:29.056Z,97955.70
2019-04-22T16:35:58.778Z,97961.98
2019-04-22T16:38:28.926Z,97957.31
2019-04-22T16:40:58.839Z,97955.89
2019-04-22T16:43:28.805Z,97958.63
2019-04-22T16:45:58.107Z,97954.31
2019-04-22T16:48:27.498Z,97950.73
2019-04-22T16:50:58.336Z,97948.72
2019-04-22T16:53:29.359Z,97955.68
2019-04-22T16:55:59.203Z,97951.36
2019-04-22T16:58:28.797Z,97951.09
2019-04-22T17:00:58.802Z,97941.27
2019-04-22T17:03:47.271Z,97950.54
2019-04-22T17:06:25.858Z,97944.06
2019-04-22T17:08:55.189Z,97945.38
2019-04-22T17:11:25.584Z,97946.69
2019-04-22T17:13:59.225Z,97947.59
2019-04-22T17:16:28.572Z,97945.65
2019-04-22T17:18:58.496Z,97951.02
2019-04-22T17:21:28.137Z,97944.77
2019-04-22T17:23:57.609Z,97947.81
2019-04-22T17:26:28.513Z,97947.35
2019-04-22T17:29:01.224Z,97944.52
2019-04-22T17:31:29.101Z,97949.52
2019-04-22T17:33:59.012Z,97946.11
2019-04-22T17:36:30.010Z,97949.53
2019-04-22T17:39:15.948Z,97951.84
2019-04-22T17:41:50.676Z,97938.16
2019-04-22T17:44:40.041Z,97945.63
2019-04-22T17:47:25.888Z,97944.81
2019-04-22T17:50:10.499Z,97949.25
2019-04-22T17:52:37.555Z,97946.97
2019-04-22T17:55:00.817Z,97939.84
2019-04-22T17:57:34.400Z,97946.55
2019-04-22T18:00:06.460Z,97943.87
2019-04-22T18:02:35.718Z,97940.86
2019-04-22T18:04:56.251Z,97940.55
2019-04-22T18:07:57.354Z,97942.41
2019-04-22T18:12:50.170Z,97941.55
2019-04-22T18:15:26.997Z,97942.30
2019-04-22T18:18:01.015Z,97944.55
2019-04-22T18:20:27.213Z,97932.17
2019-04-22T18:22:54.455Z,97942.33
2019-04-22T18:25:34.170Z,97944.54
2019-04-22T18:28:17.278Z,97937.72
2019-04-22T18:30:38.715Z,97945.45
2019-04-22T18:33:18.023Z,97942.75
2019-04-22T18:35:44.553Z,97944.17
2019-04-22T18:38:33.309Z,97943.95
2019-04-22T18:40:53.468Z,97944.06
2019-04-22T18:43:27.650Z,97949.78
2019-04-22T18:46:05.370Z,97961.27
2019-04-22T18:48:37.773Z,97954.81
2019-04-22T18:51:25.094Z,97957.68
2019-04-22T18:54:18.359Z,97955.75
2019-04-22T18:56:52.526Z,97960.65
2019-04-22T18:59:17.459Z,97963.63
2019-04-22T19:02:03.780Z,97963.73
2019-04-22T19:04:31.706Z,97969.17
2019-04-22T19:07:23.961Z,97968.48
2019-04-22T19:09:59.369Z,97967.66
2019-04-22T19:12:28.903Z,97975.13
2019-04-22T19:15:01.584Z,97981.46
2019-04-22T19:17:34.800Z,97982.40
2019-04-22T19:20:02.430Z,97984.93
2019-04-22T19:22:30.933Z,97980.99
2019-04-22T19:24:54.966Z,97979.48
2019-04-22T19:27:30.989Z,97984.38
2019-04-22T19:30:14.080Z,97990.39
2019-04-22T19:32:46.385Z,97990.70
2019-04-22T19:35:18.451Z,97983.38
2019-04-22T19:37:50.806Z,97987.08
2019-04-22T19:40:45.821Z,97994.64
2019-04-22T19:43:12.155Z,97993.61
2019-04-22T19:45:33.058Z,97991.11
2019-04-22T19:48:14.048Z,97993.16
2019-04-22T19:50:45.546Z,97995.48
2019-04-22T19:53:10.567Z,97995.32
2019-04-22T19:55:40.736Z,98001.00
2019-04-22T19:58:15.178Z,97999.33
2019-04-22T20:01:02.531Z,97990.28
2019-04-22T20:03:55.917Z,97991.97
2019-04-22T20:06:36.770Z,97987.59
2019-04-22T20:09:09.129Z,97984.05
2019-04-22T20:11:37.596Z,97988.08
2019-04-22T20:14:06.243Z,97990.73
2019-04-22T20:16:32.539Z,97983.56
2019-04-22T20:19:12.098Z,97985.55
2019-04-22T20:21:45.623Z,97984.67
2019-04-22T20:24:01.579Z,97986.86
2019-04-22T20:26:45.496Z,97991.31
2019-04-22T20:29:21.009Z,97981.86
2019-04-22T20:31:48.578Z,97977.12
2019-04-22T20:34:21.961Z,97975.76
2019-04-22T20:37:01.907Z,97971.42
2019-04-22T20:39:27.073Z,97980.70
2019-04-22T20:42:04.618Z,97971.69
2019-04-22T20:44:33.538Z,97966.67
2019-04-22T20:47:00.394Z,97963.59
2019-04-22T20:49:36.575Z,97956.50
2019-04-22T20:52:16.418Z,97954.11
2019-04-22T20:54:40.687Z,97957.58
2019-04-22T20:57:07.408Z,97960.75
2019-04-22T20:59:47.206Z,97957.46
2019-04-22T21:02:15.264Z,97956.16
2019-04-22T21:04:47.735Z,97955.40
2019-04-22T21:07:23.776Z,97963.00
2019-04-22T21:09:58.031Z,97961.45
2019-04-22T21:12:24.977Z,97960.38
2019-04-22T21:15:06.816Z,97951.55
2019-04-22T21:17:39.087Z,97965.91
2019-04-22T21:22:46.276Z,97964.92
2019-04-22T21:25:14.071Z,97965.40
2019-04-22T21:27:51.046Z,97968.09
2019-04-22T21:30:23.410Z,97961.16
2019-04-22T21:32:54.848Z,97962.73
2019-04-22T21:35:40.406Z,97956.82
2019-04-22T21:38:04.566Z,97959.91
2019-04-22T21:40:34.067Z,97950.44
2019-04-22T21:43:04.425Z,97951.03
2019-04-22T21:45:24.911Z,97953.20
2019-04-22T21:48:20.034Z,97952.93
2019-04-22T21:50:50.183Z,97938.45
2019-04-22T21:53:19.743Z,97945.16
2019-04-22T21:55:50.817Z,97932.19
2019-04-22T21:58:52.577Z,97936.03
2019-04-22T22:01:53.971Z,97933.67
2019-04-22T22:04:23.617Z,97928.28
2019-04-22T22:06:41.374Z,97926.87
2019-04-22T22:09:25.182Z,97921.52
2019-04-22T22:11:52.812Z,97915.56
2019-04-22T22:14:27.626Z,97917.21
2019-04-22T22:17:00.214Z,97917.67
2019-04-22T22:19:43.528Z,97923.40
2019-04-22T22:22:30.078Z,97919.85
2019-04-22T22:24:45.206Z,97918.05
2019-04-22T22:27:18.532Z,97917.61
2019-04-22T22:30:23.665Z,97919.34
2019-04-22T22:32:31.920Z,97918.47
2019-04-22T22:35:03.067Z,97913.69
2019-04-22T22:37:26.640Z,97907.19
2019-04-22T22:39:56.633Z,97907.52
2019-04-22T22:42:23.810Z,97914.79
2019-04-22T22:44:58.926Z,97911.20
2019-04-22T22:47:42.213Z,97912.56
2019-04-22T22:50:20.123Z,97908.99
2019-04-22T22:53:03.060Z,97908.23
2019-04-22T22:55:21.738Z,97910.21
2019-04-22T22:57:58.507Z,97903.77
2019-04-22T23:00:32.211Z,97903.51
2019-04-22T23:03:38.104Z,97903.06
2019-04-22T23:05:50.531Z,97904.64
2019-04-22T23:08:20.105Z,97896.47
2019-04-22T23:11:00.718Z,97891.26
2019-04-22T23:13:26.135Z,97887.53
2019-04-22T23:15:50.179Z,97884.28
2019-04-22T23:18:10.061Z,97880.21
2019-04-22T23:20:47.003Z,97883.35
2019-04-22T23:23:33.425Z,97882.20
2019-04-22T23:26:17.746Z,97888.67
2019-04-22T23:28:50.960Z,97885.30
2019-04-22T23:31:29.488Z,97882.13
2019-04-22T23:34:15.937Z,97891.08
2019-04-22T23:36:55.988Z,97878.55
2019-04-22T23:39:43.599Z,97880.22
2019-04-22T23:42:18.934Z,97880.03
2019-04-22T23:44:43.378Z,97874.79
2019-04-22T23:47:14.877Z,97871.67
2019-04-22T23:49:53.529Z,97869.66
2019-04-22T23:52:23.868Z,97860.73
2019-04-22T23:55:03.342Z,97856.30
